createdAt,value
2023-01-22T00:02:14.457Z,-0.90
2023-01-22T00:07:27.261Z,-0.80
2023-01-22T00:09:56.444Z,-0.90
2023-01-22T00:12:26.993Z,-1.00
2023-01-22T00:17:42.549Z,-1.20
2023-01-22T00:20:16.694Z,-1.30
2023-01-22T00:22:46.857Z,-1.30
2023-01-22T00:28:02.622Z,-1.40
2023-01-22T00:36:15.171Z,-1.30
2023-01-22T00:38:44.579Z,-1.10
2023-01-22T00:41:13.655Z,-1.10
2023-01-22T00:43:42.612Z,-1.10
2023-01-22T00:46:14.514Z,-1.10
2023-01-22T00:51:42.973Z,-1.10
2023-01-22T00:54:14.723Z,-1.00
2023-01-22T00:56:50.549Z,-1.00
2023-01-22T01:02:09.344Z,-0.90
2023-01-22T01:16:09.446Z,-0.80
2023-01-22T01:18:39.948Z,-0.70
2023-01-22T01:21:16.692Z,-0.80
2023-01-22T01:23:47.034Z,-0.90
2023-01-22T01:26:16.749Z,-0.90
2023-01-22T01:31:40.586Z,-1.10
2023-01-22T01:34:09.233Z,-2.00
2023-01-22T01:42:12.974Z,-4.40
2023-01-22T01:47:42.193Z,-5.50
2023-01-22T01:50:13.160Z,-5.70
2023-01-22T01:52:42.599Z,-5.70
2023-01-22T01:55:12.451Z,-5.90
2023-01-22T01:57:42.797Z,-6.20
2023-01-22T02:00:16.235Z,-6.40
2023-01-22T02:05:39.151Z,-6.60
2023-01-22T02:08:16.848Z,-6.60
2023-01-22T02:10:46.167Z,-6.40
2023-01-22T02:16:15.979Z,-6.10
2023-01-22T02:18:44.393Z,-6.20
2023-01-22T02:21:39.511Z,-6.40
2023-01-22T02:24:30.015Z,-6.60
2023-01-22T02:29:45.542Z,-6.80
2023-01-22T02:32:13.779Z,-6.90
2023-01-22T07:55:36.763Z,0.00
2023-01-22T07:58:06.801Z,0.10
2023-01-22T08:00:35.665Z,0.10
2023-01-22T08:05:50.067Z,0.30
2023-01-22T08:13:50.352Z,0.50
2023-01-22T08:21:47.192Z,0.50
2023-01-22T08:24:15.487Z,0.40
2023-01-22T08:26:45.422Z,0.40
2023-01-22T08:31:57.610Z,0.50
2023-01-22T08:39:56.877Z,0.30
2023-01-22T08:42:23.973Z,0.30
2023-01-22T08:47:35.598Z,0.30
2023-01-22T08:50:02.936Z,0.30
2023-01-22T08:57:59.342Z,-1.00
2023-01-22T09:05:58.070Z,-3.20
2023-01-22T09:13:56.486Z,-3.90
2023-01-22T09:16:25.450Z,-3.90
2023-01-22T09:21:39.802Z,-4.00
2023-01-22T09:24:07.845Z,-4.00
2023-01-22T09:26:37.229Z,-3.70
2023-01-22T09:31:57.105Z,-3.20
2023-01-22T09:39:56.251Z,-4.80
2023-01-22T09:42:43.640Z,-5.10
2023-01-22T09:48:03.009Z,-5.60
2023-01-22T09:50:33.475Z,-5.70
2023-01-22T09:55:52.732Z,-5.80
2023-01-22T10:04:01.333Z,-5.90
2023-01-22T10:06:30.312Z,-6.00
2023-01-22T10:09:31.322Z,-5.80
2023-01-22T10:11:59.995Z,-5.90
2023-01-22T10:17:50.033Z,-6.00
2023-01-22T10:20:19.253Z,-6.00
2023-01-22T10:22:49.711Z,-6.10
2023-01-22T10:28:01.563Z,-5.00
2023-01-22T10:30:30.710Z,-4.00
2023-01-22T10:35:54.321Z,-4.20
2023-01-22T10:50:12.929Z,-5.50
2023-01-22T10:52:48.172Z,-5.60
2023-01-22T10:55:32.534Z,-5.60
2023-01-22T10:58:07.757Z,-5.70
2023-01-22T11:10:01.161Z,-5.70
2023-01-22T11:12:38.519Z,-5.80
2023-01-22T11:15:39.015Z,-5.50
2023-01-22T11:18:07.960Z,-4.60
2023-01-22T11:24:00.456Z,-2.60
2023-01-22T11:27:06.525Z,-1.90
2023-01-22T11:29:51.944Z,-1.20
2023-01-22T11:36:06.758Z,-0.20
2023-01-22T11:42:14.876Z,0.50
2023-01-22T11:44:44.802Z,0.80
2023-01-22T11:50:16.167Z,1.20
2023-01-22T11:56:26.701Z,1.60
2023-01-22T12:02:24.172Z,1.90
2023-01-22T12:05:17.401Z,2.10
2023-01-22T12:08:13.426Z,2.30
2023-01-22T12:11:24.800Z,2.40
2023-01-22T12:14:20.891Z,2.50
2023-01-22T12:17:12.405Z,2.60
2023-01-22T12:19:58.321Z,2.60
2023-01-22T12:22:30.925Z,2.60
2023-01-22T12:25:19.362Z,2.50
2023-01-22T12:28:00.950Z,2.50
2023-01-22T12:30:36.648Z,2.40
2023-01-22T12:33:07.303Z,2.40
2023-01-22T12:35:36.507Z,2.30
2023-01-22T12:38:53.609Z,2.30
2023-01-22T12:42:01.390Z,2.30
2023-01-22T12:44:37.871Z,2.30
2023-01-22T12:47:44.976Z,2.40
2023-01-22T12:50:27.000Z,2.40
2023-01-22T12:53:04.392Z,2.50
2023-01-22T12:55:35.666Z,2.60
2023-01-22T12:58:03.079Z,2.60
2023-01-22T13:00:35.252Z,2.60
2023-01-22T13:03:33.288Z,2.70
2023-01-22T13:06:04.136Z,2.60
2023-01-22T13:08:44.301Z,2.50
2023-01-22T13:11:14.162Z,2.60
2023-01-22T13:13:50.926Z,2.50
2023-01-22T13:16:30.415Z,2.50
2023-01-22T13:19:00.715Z,2.50
2023-01-22T13:21:34.118Z,2.60
2023-01-22T13:24:15.420Z,2.60
2023-01-22T13:26:52.620Z,2.50
2023-01-22T13:29:29.086Z,2.50
2023-01-22T13:32:01.231Z,2.40
2023-01-22T13:34:30.525Z,2.40
2023-01-22T13:37:02.534Z,2.40
2023-01-22T13:39:34.932Z,2.40
2023-01-22T13:42:05.874Z,2.40
2023-01-22T13:44:38.101Z,2.30
2023-01-22T13:47:07.053Z,2.30
2023-01-22T13:49:41.848Z,2.30
2023-01-22T13:52:16.506Z,2.30
2023-01-22T13:54:49.506Z,2.30
2023-01-22T13:57:20.176Z,2.30
2023-01-22T13:59:59.149Z,2.20
2023-01-22T14:02:32.729Z,2.30
2023-01-22T14:05:00.973Z,2.20
2023-01-22T14:07:29.471Z,2.20
2023-01-22T14:09:58.208Z,2.20
2023-01-22T14:12:27.334Z,2.20
2023-01-22T14:14:55.282Z,2.20
2023-01-22T14:17:32.726Z,2.20
2023-01-22T14:20:00.364Z,2.10
2023-01-22T14:22:27.687Z,2.00
2023-01-22T14:24:55.429Z,2.00
2023-01-22T14:27:27.399Z,1.10
2023-01-22T14:29:55.426Z,0.00
2023-01-22T14:32:24.262Z,-1.00
2023-01-22T14:34:51.365Z,-1.70
2023-01-22T14:37:19.177Z,-2.10
2023-01-22T14:39:46.397Z,-2.40
2023-01-22T14:42:13.771Z,-2.60
2023-01-22T14:44:40.787Z,-2.70
2023-01-22T14:47:08.078Z,-2.70
2023-01-22T14:49:36.061Z,-2.30
2023-01-22T14:52:03.594Z,-1.80
2023-01-22T14:54:30.659Z,-1.30
2023-01-22T14:56:59.730Z,-0.90
2023-01-22T14:59:27.605Z,-0.60
2023-01-22T15:01:54.999Z,-0.30
2023-01-22T15:04:22.600Z,-0.10
2023-01-22T15:06:49.588Z,0.00
2023-01-22T15:09:17.679Z,0.20
2023-01-22T15:11:45.005Z,0.30
2023-01-22T15:14:11.992Z,0.40
2023-01-22T15:16:40.742Z,0.40
2023-01-22T15:19:07.936Z,0.40
2023-01-22T15:21:35.380Z,0.40
2023-01-22T15:24:02.517Z,0.30
2023-01-22T15:26:33.908Z,0.30
2023-01-22T15:29:01.831Z,0.30
2023-01-22T15:31:29.762Z,0.40
2023-01-22T15:33:58.436Z,0.40
2023-01-22T15:36:25.673Z,0.50
2023-01-22T15:38:52.827Z,0.40
2023-01-22T15:41:28.495Z,0.40
2023-01-22T15:44:02.342Z,0.40
2023-01-22T15:46:35.905Z,0.40
2023-01-22T15:49:05.666Z,0.30
2023-01-22T15:51:32.980Z,0.30
2023-01-22T15:54:02.585Z,0.30
2023-01-22T15:56:33.326Z,0.30
2023-01-22T15:59:01.016Z,0.30
2023-01-22T16:01:29.292Z,0.30
2023-01-22T16:03:57.371Z,0.40
2023-01-22T16:06:27.088Z,0.40
2023-01-22T16:08:57.983Z,0.40
2023-01-22T16:11:26.877Z,0.60
2023-01-22T16:13:54.264Z,0.70
2023-01-22T16:16:25.782Z,0.70
2023-01-22T16:18:54.669Z,0.60
2023-01-22T16:21:23.059Z,0.60
2023-01-22T16:23:55.184Z,0.70
2023-01-22T16:26:26.106Z,0.70
2023-01-22T16:28:56.066Z,0.70
2023-01-22T16:31:26.064Z,0.60
2023-01-22T16:33:56.720Z,0.60
2023-01-22T16:36:26.616Z,0.60
2023-01-22T16:38:54.166Z,0.60
2023-01-22T16:41:30.315Z,0.60
2023-01-22T16:44:01.439Z,0.60
2023-01-22T16:46:32.038Z,0.70
2023-01-22T16:49:05.107Z,0.70
2023-01-22T16:51:38.712Z,0.70
2023-01-22T16:54:07.413Z,0.70
2023-01-22T16:56:35.682Z,0.80
2023-01-22T16:59:02.883Z,0.80
2023-01-22T17:01:31.176Z,0.70
2023-01-22T17:03:58.351Z,0.70
2023-01-22T17:06:41.141Z,0.70
2023-01-22T17:09:14.465Z,0.70
2023-01-22T17:11:44.092Z,0.70
2023-01-22T17:14:11.223Z,0.70
2023-01-22T17:16:39.396Z,0.70
2023-01-22T17:19:06.431Z,0.80
2023-01-22T17:21:33.956Z,0.80
2023-01-22T17:24:01.214Z,0.80
2023-01-22T17:26:28.750Z,0.80
2023-01-22T17:28:55.780Z,0.80
2023-01-22T17:31:24.403Z,0.80
2023-01-22T17:33:55.651Z,0.70
2023-01-22T17:36:28.573Z,-0.30
2023-01-22T17:39:00.160Z,-1.40
2023-01-22T17:41:27.761Z,-2.50
2023-01-22T17:43:59.010Z,-3.20
2023-01-22T17:46:29.470Z,-3.70
2023-01-22T17:48:56.490Z,-4.20
2023-01-22T17:51:27.470Z,-4.60
2023-01-22T17:53:56.676Z,-4.90
2023-01-22T17:56:26.941Z,-5.10
2023-01-22T17:59:00.069Z,-5.20
2023-01-22T18:01:30.300Z,-5.20
2023-01-22T18:03:59.843Z,-5.30
2023-01-22T18:06:28.136Z,-5.40
2023-01-22T18:08:56.188Z,-5.50
2023-01-22T18:11:27.949Z,-5.60
2023-01-22T18:14:00.511Z,-5.80
2023-01-22T18:16:38.651Z,-5.90
2023-01-22T18:19:08.044Z,-5.90
2023-01-22T18:21:37.653Z,-5.90
2023-01-22T18:24:06.277Z,-5.90
2023-01-22T18:26:35.074Z,-6.00
2023-01-22T18:29:02.499Z,-6.00
2023-01-22T18:31:30.211Z,-6.10
2023-01-22T18:34:02.809Z,-6.10
2023-01-22T18:36:33.304Z,-6.20
2023-01-22T18:39:02.809Z,-6.00
2023-01-22T18:41:31.217Z,-4.70
2023-01-22T18:44:00.656Z,-4.10
2023-01-22T18:46:31.821Z,-4.60
2023-01-22T18:49:01.949Z,-5.00
2023-01-22T18:51:30.303Z,-5.30
2023-01-22T18:53:58.316Z,-5.50
2023-01-22T18:56:28.753Z,-5.60
2023-01-22T18:58:56.943Z,-5.70
2023-01-22T19:01:29.743Z,-5.80
2023-01-22T19:04:00.152Z,-5.80
2023-01-22T19:06:29.831Z,-5.80
2023-01-22T19:08:58.940Z,-5.80
2023-01-22T19:11:26.678Z,-5.80
2023-01-22T19:13:56.620Z,-5.90
2023-01-22T19:16:24.955Z,-6.00
2023-01-22T19:18:58.134Z,-6.00
2023-01-22T19:21:26.981Z,-6.10
2023-01-22T19:23:58.145Z,-6.10
2023-01-22T19:26:29.217Z,-6.10
2023-01-22T19:28:59.245Z,-6.00
2023-01-22T19:31:47.771Z,-6.10
2023-01-22T19:34:23.466Z,-5.50
2023-01-22T19:36:56.626Z,-4.60
2023-01-22T19:39:26.076Z,-3.70
2023-01-22T19:41:54.625Z,-3.30
2023-01-22T19:44:21.669Z,-3.00
2023-01-22T19:46:48.770Z,-2.70
2023-01-22T19:49:16.159Z,-2.40
2023-01-22T19:51:43.257Z,-2.00
2023-01-22T19:54:11.412Z,-1.70
2023-01-22T19:56:41.746Z,-1.50
2023-01-22T19:59:12.791Z,-1.30
2023-01-22T20:01:40.126Z,-1.10
2023-01-22T20:04:14.846Z,-0.90
2023-01-22T20:06:42.105Z,-0.90
2023-01-22T20:09:09.063Z,-0.90
2023-01-22T20:11:36.364Z,-0.90
2023-01-22T20:14:03.856Z,-0.80
2023-01-22T20:16:30.930Z,-0.80
2023-01-22T20:18:59.038Z,-0.70
2023-01-22T20:21:27.228Z,-0.60
2023-01-22T20:23:55.176Z,-0.60
2023-01-22T20:26:23.705Z,-0.50
2023-01-22T20:28:51.321Z,-0.40
2023-01-22T20:31:23.507Z,-0.40
2023-01-22T20:33:52.907Z,-0.30
2023-01-22T20:36:21.683Z,-0.40
2023-01-22T20:38:52.763Z,-0.40
2023-01-22T20:41:21.512Z,-0.40
2023-01-22T20:43:48.992Z,-0.30
2023-01-22T20:46:22.503Z,-0.30
2023-01-22T20:48:50.656Z,-0.20
2023-01-22T20:51:21.724Z,-0.10
2023-01-22T20:53:50.104Z,0.00
2023-01-22T20:56:21.189Z,0.00
2023-01-22T20:58:49.255Z,0.00
2023-01-22T21:01:19.550Z,-0.10
2023-01-22T21:03:48.836Z,-0.10
2023-01-22T21:06:18.684Z,-0.20
2023-01-22T21:08:52.071Z,-0.20
2023-01-22T21:11:20.996Z,-0.20
2023-01-22T21:13:50.145Z,-0.30
2023-01-22T21:16:26.525Z,-0.30
2023-01-22T21:18:55.925Z,-0.40
2023-01-22T21:21:23.839Z,-0.40
2023-01-22T21:23:53.829Z,-0.30
2023-01-22T21:26:25.419Z,-0.20
2023-01-22T21:29:17.348Z,-0.20
2023-01-22T21:31:45.798Z,-0.10
2023-01-22T21:34:13.690Z,0.00
2023-01-22T21:36:49.125Z,0.00
2023-01-22T21:39:20.085Z,-0.10
2023-01-22T21:41:47.615Z,-1.00
2023-01-22T21:44:36.605Z,-1.90
2023-01-22T21:47:05.026Z,-2.60
2023-01-22T21:49:33.940Z,-3.30
2023-01-22T21:52:05.809Z,-3.70
2023-01-22T21:54:44.072Z,-4.10
2023-01-22T21:57:16.554Z,-4.30
2023-01-22T21:59:45.996Z,-4.30
2023-01-22T22:02:18.920Z,-4.40
2023-01-22T22:04:46.965Z,-4.40
2023-01-22T22:07:14.808Z,-4.40
2023-01-22T22:09:44.494Z,-4.40
2023-01-22T22:12:11.764Z,-4.30
2023-01-22T22:14:38.955Z,-4.20
2023-01-22T22:17:07.907Z,-4.00
2023-01-22T22:19:35.871Z,-3.90
2023-01-22T22:22:03.031Z,-3.90
2023-01-22T22:24:30.847Z,-3.90
2023-01-22T22:26:57.883Z,-3.90
2023-01-22T22:29:25.299Z,-3.50
2023-01-22T22:31:52.721Z,-3.20
2023-01-22T22:34:19.827Z,-2.90
2023-01-22T22:36:47.190Z,-2.60
2023-01-22T22:39:14.442Z,-2.30
2023-01-22T22:41:41.483Z,-2.00
2023-01-22T22:44:10.289Z,-1.70
2023-01-22T22:46:39.925Z,-1.50
2023-01-22T22:49:11.734Z,-1.30
2023-01-22T22:51:41.794Z,-1.20
2023-01-22T22:54:17.610Z,-1.00
2023-01-22T22:56:49.728Z,-0.90
2023-01-22T22:59:20.049Z,-0.90
2023-01-22T23:01:48.678Z,-0.80
2023-01-22T23:04:16.016Z,-0.70
2023-01-22T23:06:45.373Z,-0.70
2023-01-22T23:09:15.989Z,-0.60
2023-01-22T23:11:43.887Z,-0.60
2023-01-22T23:14:10.965Z,-0.60
2023-01-22T23:16:40.550Z,-0.60
2023-01-22T23:19:13.645Z,-0.50
2023-01-22T23:21:41.890Z,-0.50
2023-01-22T23:24:10.915Z,-0.50
2023-01-22T23:26:38.938Z,-0.50
2023-01-22T23:29:09.320Z,-0.50
2023-01-22T23:31:38.481Z,-0.60
2023-01-22T23:34:10.396Z,-0.60
2023-01-22T23:36:40.536Z,-0.60
2023-01-22T23:39:07.503Z,-0.50
2023-01-22T23:41:35.057Z,-0.50
2023-01-22T23:44:02.515Z,-0.40
2023-01-22T23:46:35.095Z,-0.40
2023-01-22T23:49:03.211Z,-0.40
2023-01-22T23:51:31.424Z,-0.40
2023-01-22T23:53:58.787Z,-0.30
2023-01-22T23:56:32.235Z,-0.30
2023-01-22T23:59:00.006Z,-0.30
